sensor_id;sensor_type;location;lat;lon;timestamp;pressure;altitude;pressure_sealevel;temperature;humidity
21730;BME280;11027;51.030;13.812;2023-07-13T00:02:15;99850.38;;;24.57;44.71
21730;BME280;11027;51.030;13.812;2023-07-13T00:04:41;99842.84;;;24.57;44.73
21730;BME280;11027;51.030;13.812;2023-07-13T00:07:08;99846.75;;;24.56;44.84
21730;BME280;11027;51.030;13.812;2023-07-13T00:09:33;99846.19;;;24.54;44.92
21730;BME280;11027;51.030;13.812;2023-07-13T00:11:59;99846.50;;;24.52;44.80
21730;BME280;11027;51.030;13.812;2023-07-13T00:14:25;99855.13;;;24.51;45.03
21730;BME280;11027;51.030;13.812;2023-07-13T00:16:51;99865.94;;;24.47;45.19
21730;BME280;11027;51.030;13.812;2023-07-13T00:19:16;99864.84;;;24.43;45.49
21730;BME280;11027;51.030;13.812;2023-07-13T00:21:42;99869.31;;;24.29;45.52
21730;BME280;11027;51.030;13.812;2023-07-13T00:24:10;99865.97;;;24.16;45.74
21730;BME280;11027;51.030;13.812;2023-07-13T00:26:38;99884.63;;;24.06;45.83
21730;BME280;11027;51.030;13.812;2023-07-13T00:29:03;99880.72;;;24.02;46.01
21730;BME280;11027;51.030;13.812;2023-07-13T00:31:30;99899.34;;;24.06;46.03
21730;BME280;11027;51.030;13.812;2023-07-13T00:33:55;99910.50;;;24.06;46.20
21730;BME280;11027;51.030;13.812;2023-07-13T00:36:20;99923.84;;;24.04;46.27
21730;BME280;11027;51.030;13.812;2023-07-13T00:38:46;99926.63;;;24.04;46.73
21730;BME280;11027;51.030;13.812;2023-07-13T00:41:12;99932.19;;;24.04;47.40
21730;BME280;11027;51.030;13.812;2023-07-13T00:43:38;99939.41;;;24.00;48.71
21730;BME280;11027;51.030;13.812;2023-07-13T00:46:16;99957.75;;;23.91;50.25
21730;BME280;11027;51.030;13.812;2023-07-13T00:48:42;99962.75;;;23.84;51.63
21730;BME280;11027;51.030;13.812;2023-07-13T00:51:09;99966.03;;;23.75;52.12
21730;BME280;11027;51.030;13.812;2023-07-13T00:53:35;99971.00;;;23.68;52.60
21730;BME280;11027;51.030;13.812;2023-07-13T00:56:00;99965.69;;;23.62;53.37
21730;BME280;11027;51.030;13.812;2023-07-13T00:58:26;99953.69;;;23.51;54.07
21730;BME280;11027;51.030;13.812;2023-07-13T01:00:52;99954.19;;;23.38;54.69
21730;BME280;11027;51.030;13.812;2023-07-13T01:03:18;99947.97;;;23.20;54.91
21730;BME280;11027;51.030;13.812;2023-07-13T01:05:43;99934.34;;;23.13;55.82
21730;BME280;11027;51.030;13.812;2023-07-13T01:08:12;99913.25;;;23.17;56.02
21730;BME280;11027;51.030;13.812;2023-07-13T01:10:37;99894.38;;;23.25;57.05
21730;BME280;11027;51.030;13.812;2023-07-13T01:13:07;99881.28;;;23.20;58.35
21730;BME280;11027;51.030;13.812;2023-07-13T01:15:44;99870.19;;;23.20;59.57
21730;BME280;11027;51.030;13.812;2023-07-13T01:18:13;99875.13;;;23.03;60.63
21730;BME280;11027;51.030;13.812;2023-07-13T01:20:40;99882.72;;;22.80;61.39
21730;BME280;11027;51.030;13.812;2023-07-13T01:23:07;99898.13;;;22.55;61.96
21730;BME280;11027;51.030;13.812;2023-07-13T01:25:34;99905.47;;;22.40;62.70
21730;BME280;11027;51.030;13.812;2023-07-13T01:28:01;99904.56;;;22.29;63.60
21730;BME280;11027;51.030;13.812;2023-07-13T01:30:26;99906.66;;;22.16;63.83
21730;BME280;11027;51.030;13.812;2023-07-13T01:32:52;99907.41;;;22.07;64.53
21730;BME280;11027;51.030;13.812;2023-07-13T01:35:17;99906.50;;;22.01;65.10
21730;BME280;11027;51.030;13.812;2023-07-13T01:37:42;99901.00;;;22.06;65.50
21730;BME280;11027;51.030;13.812;2023-07-13T01:40:10;99903.22;;;22.04;66.21
21730;BME280;11027;51.030;13.812;2023-07-13T01:42:36;99902.69;;;22.07;66.66
21730;BME280;11027;51.030;13.812;2023-07-13T01:45:02;99907.06;;;22.03;66.79
21730;BME280;11027;51.030;13.812;2023-07-13T01:47:27;99919.84;;;22.04;67.29
21730;BME280;11027;51.030;13.812;2023-07-13T01:49:55;99914.34;;;22.09;67.56
21730;BME280;11027;51.030;13.812;2023-07-13T01:52:20;99928.78;;;22.11;67.65
21730;BME280;11027;51.030;13.812;2023-07-13T01:54:46;99920.22;;;22.13;67.53
21730;BME280;11027;51.030;13.812;2023-07-13T01:57:11;99909.38;;;22.11;67.50
21730;BME280;11027;51.030;13.812;2023-07-13T01:59:36;99921.00;;;22.08;68.10
21730;BME280;11027;51.030;13.812;2023-07-13T02:02:02;99908.22;;;22.07;68.13
21730;BME280;11027;51.030;13.812;2023-07-13T02:04:27;99902.16;;;22.10;68.71
21730;BME280;11027;51.030;13.812;2023-07-13T02:06:52;99894.09;;;22.09;68.85
21730;BME280;11027;51.030;13.812;2023-07-13T02:09:17;99897.13;;;22.07;69.74
21730;BME280;11027;51.030;13.812;2023-07-13T02:11:42;99901.00;;;22.06;69.59
21730;BME280;11027;51.030;13.812;2023-07-13T02:14:08;99901.53;;;22.03;69.47
21730;BME280;11027;51.030;13.812;2023-07-13T02:16:33;99903.72;;;22.01;69.76
21730;BME280;11027;51.030;13.812;2023-07-13T02:18:58;99899.22;;;21.95;69.83
21730;BME280;11027;51.030;13.812;2023-07-13T02:21:25;99906.66;;;21.89;70.13
21730;BME280;11027;51.030;13.812;2023-07-13T02:23:50;99901.06;;;21.84;70.23
21730;BME280;11027;51.030;13.812;2023-07-13T02:26:17;99896.63;;;21.83;70.61
21730;BME280;11027;51.030;13.812;2023-07-13T02:28:42;99906.88;;;21.83;70.88
21730;BME280;11027;51.030;13.812;2023-07-13T02:31:10;99898.56;;;21.83;70.88
21730;BME280;11027;51.030;13.812;2023-07-13T02:33:36;99917.47;;;21.86;71.00
21730;BME280;11027;51.030;13.812;2023-07-13T02:36:02;99919.94;;;21.87;70.80
21730;BME280;11027;51.030;13.812;2023-07-13T02:38:27;99914.16;;;21.89;70.90
21730;BME280;11027;51.030;13.812;2023-07-13T02:40:53;99914.69;;;21.86;71.18
21730;BME280;11027;51.030;13.812;2023-07-13T02:43:18;99914.38;;;21.82;71.59
21730;BME280;11027;51.030;13.812;2023-07-13T02:45:44;99919.56;;;21.73;71.60
21730;BME280;11027;51.030;13.812;2023-07-13T02:48:09;99919.22;;;21.70;71.91
21730;BME280;11027;51.030;13.812;2023-07-13T02:50:34;99921.44;;;21.68;72.27
21730;BME280;11027;51.030;13.812;2023-07-13T02:53:00;99921.69;;;21.66;72.42
21730;BME280;11027;51.030;13.812;2023-07-13T02:55:25;99910.25;;;21.63;72.10
21730;BME280;11027;51.030;13.812;2023-07-13T02:57:50;99916.06;;;21.61;72.12
21730;BME280;11027;51.030;13.812;2023-07-13T03:00:15;99921.59;;;21.61;72.02
21730;BME280;11027;51.030;13.812;2023-07-13T03:02:41;99921.59;;;21.61;72.04
21730;BME280;11027;51.030;13.812;2023-07-13T03:05:07;99934.38;;;21.62;72.19
21730;BME280;11027;51.030;13.812;2023-07-13T03:07:32;99929.34;;;21.59;72.00
21730;BME280;11027;51.030;13.812;2023-07-13T03:09:58;99931.53;;;21.57;72.25
21730;BME280;11027;51.030;13.812;2023-07-13T03:12:24;99925.41;;;21.55;72.38
21730;BME280;11027;51.030;13.812;2023-07-13T03:14:50;99928.19;;;21.55;72.28
21730;BME280;11027;51.030;13.812;2023-07-13T03:17:15;99932.06;;;21.54;72.69
21730;BME280;11027;51.030;13.812;2023-07-13T03:19:41;99932.06;;;21.54;72.83
21730;BME280;11027;51.030;13.812;2023-07-13T03:22:06;99927.34;;;21.54;72.73
21730;BME280;11027;51.030;13.812;2023-07-13T03:24:33;99929.22;;;21.49;72.88
21730;BME280;11027;51.030;13.812;2023-07-13T03:27:00;99924.22;;;21.46;72.97
21730;BME280;11027;51.030;13.812;2023-07-13T03:29:25;99925.88;;;21.47;72.91
21730;BME280;11027;51.030;13.812;2023-07-13T03:31:50;99934.72;;;21.44;72.31
21730;BME280;11027;51.030;13.812;2023-07-13T03:34:15;99939.66;;;21.42;72.32
21730;BME280;11027;51.030;13.812;2023-07-13T03:36:41;99936.31;;;21.40;72.82
21730;BME280;11027;51.030;13.812;2023-07-13T03:39:06;99937.97;;;21.41;72.95
21730;BME280;11027;51.030;13.812;2023-07-13T03:41:33;99939.56;;;21.36;73.11
21730;BME280;11027;51.030;13.812;2023-07-13T03:43:58;99940.56;;;21.25;73.16
21730;BME280;11027;51.030;13.812;2023-07-13T03:46:24;99947.75;;;21.26;73.53
21730;BME280;11027;51.030;13.812;2023-07-13T03:48:49;99943.91;;;21.27;73.64
21730;BME280;11027;51.030;13.812;2023-07-13T03:51:16;99948.09;;;21.30;73.93
21730;BME280;11027;51.030;13.812;2023-07-13T03:53:43;99951.09;;;21.28;74.21
21730;BME280;11027;51.030;13.812;2023-07-13T03:56:09;99961.03;;;21.24;73.83
21730;BME280;11027;51.030;13.812;2023-07-13T03:58:39;99962.13;;;21.23;73.47
21730;BME280;11027;51.030;13.812;2023-07-13T04:01:07;99961.56;;;21.21;73.32
21730;BME280;11027;51.030;13.812;2023-07-13T04:03:33;99964.03;;;21.23;73.32
21730;BME280;11027;51.030;13.812;2023-07-13T04:06:00;99962.72;;;21.25;73.00
21730;BME280;11027;51.030;13.812;2023-07-13T04:08:30;99969.34;;;21.24;73.29
21730;BME280;11027;51.030;13.812;2023-07-13T04:10:56;99973.78;;;21.25;72.66
21730;BME280;11027;51.030;13.812;2023-07-13T04:13:23;99973.78;;;21.25;72.80
21730;BME280;11027;51.030;13.812;2023-07-13T04:15:48;99987.69;;;21.30;72.85
21730;BME280;11027;51.030;13.812;2023-07-13T04:18:13;99986.34;;;21.33;72.76
21730;BME280;11027;51.030;13.812;2023-07-13T04:20:39;99998.34;;;21.38;72.75
21730;BME280;11027;51.030;13.812;2023-07-13T04:23:04;99990.88;;;21.39;72.12
21730;BME280;11027;51.030;13.812;2023-07-13T04:25:29;100002.31;;;21.43;72.07
21730;BME280;11027;51.030;13.812;2023-07-13T04:27:55;99996.25;;;21.46;71.50
21730;BME280;11027;51.030;13.812;2023-07-13T04:30:20;99994.06;;;21.48;71.44
21730;BME280;11027;51.030;13.812;2023-07-13T04:32:46;99997.09;;;21.46;71.71
21730;BME280;11027;51.030;13.812;2023-07-13T04:35:11;99998.50;;;21.49;72.16
21730;BME280;11027;51.030;13.812;2023-07-13T04:37:36;99988.44;;;21.43;72.36
21730;BME280;11027;51.030;13.812;2023-07-13T04:40:02;99993.91;;;21.37;72.21
21730;BME280;11027;51.030;13.812;2023-07-13T04:42:28;99988.88;;;21.34;72.26
21730;BME280;11027;51.030;13.812;2023-07-13T04:44:54;100000.47;;;21.31;72.52
21730;BME280;11027;51.030;13.812;2023-07-13T04:47:19;99993.91;;;21.37;72.88
21730;BME280;11027;51.030;13.812;2023-07-13T04:49:45;99997.63;;;21.43;72.84
21730;BME280;11027;51.030;13.812;2023-07-13T04:52:10;100000.97;;;21.45;72.47
21730;BME280;11027;51.030;13.812;2023-07-13T04:54:36;99994.06;;;21.48;73.05
21730;BME280;11027;51.030;13.812;2023-07-13T04:57:03;99995.69;;;21.44;72.99
21730;BME280;11027;51.030;13.812;2023-07-13T04:59:29;100007.34;;;21.46;72.66
21730;BME280;11027;51.030;13.812;2023-07-13T05:01:54;100002.88;;;21.45;72.75
21730;BME280;11027;51.030;13.812;2023-07-13T05:04:20;100006.16;;;21.42;73.17
21730;BME280;11027;51.030;13.812;2023-07-13T05:06:45;100024.31;;;21.32;73.37
21730;BME280;11027;51.030;13.812;2023-07-13T05:09:10;100022.09;;;21.34;73.31
21730;BME280;11027;51.030;13.812;2023-07-13T05:11:37;100020.94;;;21.30;73.49
21730;BME280;11027;51.030;13.812;2023-07-13T05:14:02;100028.19;;;21.31;72.80
21730;BME280;11027;51.030;13.812;2023-07-13T05:16:28;100024.31;;;21.32;72.55
21730;BME280;11027;51.030;13.812;2023-07-13T05:18:53;100021.63;;;21.37;72.49
21730;BME280;11027;51.030;13.812;2023-07-13T05:21:19;100017.22;;;21.42;72.19
21730;BME280;11027;51.030;13.812;2023-07-13T05:23:44;100009.53;;;21.44;71.85
21730;BME280;11027;51.030;13.812;2023-07-13T05:26:10;100008.19;;;21.46;71.40
21730;BME280;11027;51.030;13.812;2023-07-13T05:28:36;100006.81;;;21.49;71.15
21730;BME280;11027;51.030;13.812;2023-07-13T05:31:02;100006.31;;;21.52;70.98
21730;BME280;11027;51.030;13.812;2023-07-13T05:33:27;100015.53;;;21.57;70.56
21730;BME280;11027;51.030;13.812;2023-07-13T05:35:53;100008.44;;;21.67;70.49
21730;BME280;11027;51.030;13.812;2023-07-13T05:38:18;100013.72;;;21.68;70.29
21730;BME280;11027;51.030;13.812;2023-07-13T05:40:45;100013.66;;;21.63;70.68
21730;BME280;11027;51.030;13.812;2023-07-13T05:43:11;100013.03;;;21.56;71.07
21730;BME280;11027;51.030;13.812;2023-07-13T05:45:36;100020.44;;;21.50;71.20
21730;BME280;11027;51.030;13.812;2023-07-13T05:48:01;100021.78;;;21.48;71.48
21730;BME280;11027;51.030;13.812;2023-07-13T05:50:26;100020.63;;;21.44;71.98
21730;BME280;11027;51.030;13.812;2023-07-13T05:52:52;100027.75;;;21.40;72.59
21730;BME280;11027;51.030;13.812;2023-07-13T05:55:17;100016.41;;;21.41;72.43
21730;BME280;11027;51.030;13.812;2023-07-13T05:57:42;100015.66;;;21.46;72.61
21730;BME280;11027;51.030;13.812;2023-07-13T06:00:08;100013.97;;;21.45;72.31
21730;BME280;11027;51.030;13.812;2023-07-13T06:02:33;100014.56;;;21.47;71.63
21730;BME280;11027;51.030;13.812;2023-07-13T06:04:59;100018.44;;;21.46;71.17
21730;BME280;11027;51.030;13.812;2023-07-13T06:07:24;100014.56;;;21.47;70.86
21730;BME280;11027;51.030;13.812;2023-07-13T06:09:49;100008.72;;;21.43;70.67
21730;BME280;11027;51.030;13.812;2023-07-13T06:12:14;100015.50;;;21.35;70.74
21730;BME280;11027;51.030;13.812;2023-07-13T06:14:40;100021.97;;;21.24;71.83
21730;BME280;11027;51.030;13.812;2023-07-13T06:17:05;100032.41;;;21.17;72.28
21730;BME280;11027;51.030;13.812;2023-07-13T06:19:31;100028.03;;;21.21;72.61
21730;BME280;11027;51.030;13.812;2023-07-13T06:21:56;100036.41;;;21.26;72.60
21730;BME280;11027;51.030;13.812;2023-07-13T06:24:23;100040.91;;;21.32;72.87
21730;BME280;11027;51.030;13.812;2023-07-13T06:26:48;100046.47;;;21.32;73.01
21730;BME280;11027;51.030;13.812;2023-07-13T06:29:14;100046.56;;;21.37;72.86
21730;BME280;11027;51.030;13.812;2023-07-13T06:31:39;100038.31;;;21.43;72.68
21730;BME280;11027;51.030;13.812;2023-07-13T06:34:04;100033.38;;;21.45;72.18
21730;BME280;11027;51.030;13.812;2023-07-13T06:36:29;100031.84;;;21.54;71.84
21730;BME280;11027;51.030;13.812;2023-07-13T06:38:55;100038.03;;;21.61;71.63
21730;BME280;11027;51.030;13.812;2023-07-13T06:41:20;100036.41;;;21.65;71.43
21730;BME280;11027;51.030;13.812;2023-07-13T06:43:47;100032.88;;;21.70;71.46
21730;BME280;11027;51.030;13.812;2023-07-13T06:46:12;100029.53;;;21.68;71.07
21730;BME280;11027;51.030;13.812;2023-07-13T06:48:37;100039.72;;;21.62;71.15
21730;BME280;11027;51.030;13.812;2023-07-13T06:51:03;100041.38;;;21.63;70.70
21730;BME280;11027;51.030;13.812;2023-07-13T06:53:28;100052.66;;;21.78;70.10
21730;BME280;11027;51.030;13.812;2023-07-13T06:55:53;100060.88;;;21.90;70.03
21730;BME280;11027;51.030;13.812;2023-07-13T06:58:19;100059.91;;;22.02;69.74
21730;BME280;11027;51.030;13.812;2023-07-13T07:00:45;100064.22;;;22.14;68.92
21730;BME280;11027;51.030;13.812;2023-07-13T07:03:10;100060.41;;;22.21;68.58
21730;BME280;11027;51.030;13.812;2023-07-13T07:05:36;100062.47;;;22.30;67.69
21730;BME280;11027;51.030;13.812;2023-07-13T07:08:01;100060.59;;;22.36;67.29
21730;BME280;11027;51.030;13.812;2023-07-13T07:10:28;100066.75;;;22.43;66.05
21730;BME280;11027;51.030;13.812;2023-07-13T07:12:54;100071.91;;;22.56;64.26
21730;BME280;11027;51.030;13.812;2023-07-13T07:15:19;100065.41;;;22.73;62.88
21730;BME280;11027;51.030;13.812;2023-07-13T07:17:45;100066.63;;;22.87;61.25
21730;BME280;11027;51.030;13.812;2023-07-13T07:20:10;100064.44;;;22.89;60.21
21730;BME280;11027;51.030;13.812;2023-07-13T07:22:38;100069.66;;;22.86;59.72
21730;BME280;11027;51.030;13.812;2023-07-13T07:25:03;100072.69;;;22.84;59.33
21730;BME280;11027;51.030;13.812;2023-07-13T07:27:29;100077.59;;;22.72;57.88
21730;BME280;11027;51.030;13.812;2023-07-13T07:29:54;100069.41;;;22.60;57.74
21730;BME280;11027;51.030;13.812;2023-07-13T07:32:20;100066.84;;;22.48;57.34
21730;BME280;11027;51.030;13.812;2023-07-13T07:34:45;100066.50;;;22.45;57.59
21730;BME280;11027;51.030;13.812;2023-07-13T07:37:12;100063.41;;;22.41;57.62
21730;BME280;11027;51.030;13.812;2023-07-13T07:39:38;100061.44;;;22.36;57.42
21730;BME280;11027;51.030;13.812;2023-07-13T07:42:03;100067.81;;;22.37;57.74
21730;BME280;11027;51.030;13.812;2023-07-13T07:44:31;100061.75;;;22.40;57.79
21730;BME280;11027;51.030;13.812;2023-07-13T07:46:56;100065.94;;;22.43;55.92
21730;BME280;11027;51.030;13.812;2023-07-13T07:49:22;100074.00;;;22.44;54.39
21730;BME280;11027;51.030;13.812;2023-07-13T07:51:47;100058.28;;;22.55;54.21
21730;BME280;11027;51.030;13.812;2023-07-13T07:54:12;100057.31;;;22.71;54.16
21730;BME280;11027;51.030;13.812;2023-07-13T07:56:38;100061.34;;;22.86;53.98
21730;BME280;11027;51.030;13.812;2023-07-13T07:59:03;100065.81;;;22.87;51.01
21730;BME280;11027;51.030;13.812;2023-07-13T08:01:29;100061.06;;;22.87;51.20
21730;BME280;11027;51.030;13.812;2023-07-13T08:03:54;100064.94;;;22.86;51.41
21730;BME280;11027;51.030;13.812;2023-07-13T08:06:19;100057.09;;;22.78;50.46
21730;BME280;11027;51.030;13.812;2023-07-13T08:08:45;100064.84;;;22.76;50.40
21730;BME280;11027;51.030;13.812;2023-07-13T08:11:10;100062.38;;;22.74;50.04
21730;BME280;11027;51.030;13.812;2023-07-13T08:13:37;100071.78;;;22.73;49.95
21730;BME280;11027;51.030;13.812;2023-07-13T08:16:04;100062.03;;;22.71;50.28
21730;BME280;11027;51.030;13.812;2023-07-13T08:18:30;100068.97;;;22.68;50.32
21730;BME280;11027;51.030;13.812;2023-07-13T08:20:55;100074.78;;;22.67;49.77
21730;BME280;11027;51.030;13.812;2023-07-13T08:23:24;100078.91;;;22.64;49.70
21730;BME280;11027;51.030;13.812;2023-07-13T08:25:54;100077.56;;;22.67;49.23
21730;BME280;11027;51.030;13.812;2023-07-13T08:28:20;100072.84;;;22.67;48.72
21730;BME280;11027;51.030;13.812;2023-07-13T08:30:46;100069.91;;;22.79;48.62
21730;BME280;11027;51.030;13.812;2023-07-13T08:33:15;100079.94;;;22.85;46.90
21730;BME280;11027;51.030;13.812;2023-07-13T08:35:41;100077.25;;;22.95;47.46
21730;BME280;11027;51.030;13.812;2023-07-13T08:38:06;100077.09;;;23.07;46.63
21730;BME280;11027;51.030;13.812;2023-07-13T08:40:34;100065.31;;;23.27;46.52
21730;BME280;11027;51.030;13.812;2023-07-13T08:42:59;100068.16;;;23.43;46.67
21730;BME280;11027;51.030;13.812;2023-07-13T08:45:46;100076.66;;;23.68;46.43
21730;BME280;11027;51.030;13.812;2023-07-13T08:48:22;100076.53;;;23.90;46.80
21730;BME280;11027;51.030;13.812;2023-07-13T08:51:11;100072.41;;;24.03;46.10
21730;BME280;11027;51.030;13.812;2023-07-13T08:53:47;100067.44;;;24.10;45.44
21730;BME280;11027;51.030;13.812;2023-07-13T08:56:18;100067.47;;;24.26;45.79
21730;BME280;11027;51.030;13.812;2023-07-13T08:58:44;100063.59;;;24.32;45.49
21730;BME280;11027;51.030;13.812;2023-07-13T09:01:31;100069.72;;;24.29;45.13
21730;BME280;11027;51.030;13.812;2023-07-13T09:04:08;100071.94;;;24.27;44.67
21730;BME280;11027;51.030;13.812;2023-07-13T09:06:43;100074.16;;;24.25;45.37
21730;BME280;11027;51.030;13.812;2023-07-13T09:09:35;100070.25;;;24.21;45.11
21730;BME280;11027;51.030;13.812;2023-07-13T09:12:39;100073.06;;;24.31;45.09
21730;BME280;11027;51.030;13.812;2023-07-13T09:15:22;100076.97;;;24.30;44.61
21730;BME280;11027;51.030;13.812;2023-07-13T09:17:51;100076.44;;;24.38;44.33
21730;BME280;11027;51.030;13.812;2023-07-13T09:20:25;100077.03;;;24.50;44.02
21730;BME280;11027;51.030;13.812;2023-07-13T09:22:52;100089.56;;;24.53;43.65
21730;BME280;11027;51.030;13.812;2023-07-13T09:25:35;100095.41;;;24.51;43.59
21730;BME280;11027;51.030;13.812;2023-07-13T09:28:20;100086.78;;;24.53;43.90
21730;BME280;11027;51.030;13.812;2023-07-13T09:31:19;100093.47;;;24.57;44.28
21730;BME280;11027;51.030;13.812;2023-07-13T09:33:47;100089.00;;;24.51;43.84
21730;BME280;11027;51.030;13.812;2023-07-13T09:36:27;100079.78;;;24.45;44.04
21730;BME280;11027;51.030;13.812;2023-07-13T09:42:00;100099.53;;;24.44;44.70
21730;BME280;11027;51.030;13.812;2023-07-13T09:44:37;100089.50;;;24.38;44.55
21730;BME280;11027;51.030;13.812;2023-07-13T09:47:02;100100.63;;;24.38;44.76
21730;BME280;11027;51.030;13.812;2023-07-13T09:49:35;100095.09;;;24.43;45.02
21730;BME280;11027;51.030;13.812;2023-07-13T09:52:06;100098.97;;;24.42;44.81
21730;BME280;11027;51.030;13.812;2023-07-13T09:54:36;100108.16;;;24.37;44.47
21730;BME280;11027;51.030;13.812;2023-07-13T09:57:13;100111.75;;;24.32;44.70
21730;BME280;11027;51.030;13.812;2023-07-13T09:59:50;100114.31;;;24.44;45.16
21730;BME280;11027;51.030;13.812;2023-07-13T10:02:29;100112.66;;;24.48;44.85
21730;BME280;11027;51.030;13.812;2023-07-13T10:05:14;100110.47;;;24.50;44.36
21730;BME280;11027;51.030;13.812;2023-07-13T10:07:44;100114.91;;;24.57;44.51
21730;BME280;11027;51.030;13.812;2023-07-13T10:10:27;100112.44;;;24.75;44.64
21730;BME280;11027;51.030;13.812;2023-07-13T10:12:53;100119.97;;;24.90;44.46
21730;BME280;11027;51.030;13.812;2023-07-13T10:15:20;100111.34;;;25.07;44.00
21730;BME280;11027;51.030;13.812;2023-07-13T10:17:47;100107.22;;;25.25;43.94
21730;BME280;11027;51.030;13.812;2023-07-13T10:20:12;100114.44;;;25.42;42.69
21730;BME280;11027;51.030;13.812;2023-07-13T10:23:00;100115.53;;;25.61;42.27
21730;BME280;11027;51.030;13.812;2023-07-13T10:25:31;100115.47;;;25.77;41.81
21730;BME280;11027;51.030;13.812;2023-07-13T10:28:24;100118.28;;;25.77;41.11
21730;BME280;11027;51.030;13.812;2023-07-13T10:30:51;100122.19;;;25.75;41.67
21730;BME280;11027;51.030;13.812;2023-07-13T10:33:17;100112.09;;;25.85;41.92
21730;BME280;11027;51.030;13.812;2023-07-13T10:35:43;100110.44;;;25.94;41.45
21730;BME280;11027;51.030;13.812;2023-07-13T10:38:13;100104.56;;;26.01;41.26
21730;BME280;11027;51.030;13.812;2023-07-13T10:40:47;100105.97;;;25.98;41.22
21730;BME280;11027;51.030;13.812;2023-07-13T10:43:27;100108.75;;;25.93;41.54
21730;BME280;11027;51.030;13.812;2023-07-13T10:45:54;100103.72;;;26.00;41.60
21730;BME280;11027;51.030;13.812;2023-07-13T10:48:21;100099.25;;;26.04;41.09
21730;BME280;11027;51.030;13.812;2023-07-13T10:50:50;100103.13;;;26.08;40.82
21730;BME280;11027;51.030;13.812;2023-07-13T10:53:35;100100.91;;;26.05;40.76
21730;BME280;11027;51.030;13.812;2023-07-13T10:58:43;100103.19;;;25.88;40.04
21730;BME280;11027;51.030;13.812;2023-07-13T11:01:11;100096.50;;;25.79;40.78
21730;BME280;11027;51.030;13.812;2023-07-13T11:06:14;100092.56;;;25.95;40.92
21730;BME280;11027;51.030;13.812;2023-07-13T11:11:33;100089.53;;;25.76;40.58
21730;BME280;11027;51.030;13.812;2023-07-13T11:15:00;100086.16;;;25.79;40.12
21730;BME280;11027;51.030;13.812;2023-07-13T11:16:49;100096.50;;;25.84;39.99
21730;BME280;11027;51.030;13.812;2023-07-13T11:25:20;100080.03;;;25.77;39.06
21730;BME280;11027;51.030;13.812;2023-07-13T11:27:52;100089.78;;;25.85;38.75
21730;BME280;11027;51.030;13.812;2023-07-13T11:35:34;100089.22;;;25.93;38.49
21730;BME280;11027;51.030;13.812;2023-07-13T11:38:02;100081.13;;;25.97;37.71
21730;BME280;11027;51.030;13.812;2023-07-13T11:40:29;100080.25;;;26.01;38.08
21730;BME280;11027;51.030;13.812;2023-07-13T11:42:59;100085.78;;;26.11;39.12
21730;BME280;11027;51.030;13.812;2023-07-13T11:45:25;100078.50;;;26.21;39.17
21730;BME280;11027;51.030;13.812;2023-07-13T11:47:51;100073.47;;;26.23;39.32
21730;BME280;11027;51.030;13.812;2023-07-13T11:50:19;100079.03;;;26.28;38.86
21730;BME280;11027;51.030;13.812;2023-07-13T11:52:45;100086.81;;;26.31;38.21
21730;BME280;11027;51.030;13.812;2023-07-13T11:55:16;100079.59;;;26.25;37.87
21730;BME280;11027;51.030;13.812;2023-07-13T11:57:56;100073.16;;;26.29;38.45
21730;BME280;11027;51.030;13.812;2023-07-13T12:00:23;100078.38;;;26.46;38.35
21730;BME280;11027;51.030;13.812;2023-07-13T12:02:54;100085.50;;;26.68;38.19
21730;BME280;11027;51.030;13.812;2023-07-13T12:05:21;100075.19;;;26.68;38.02
21730;BME280;11027;51.030;13.812;2023-07-13T12:07:46;100077.28;;;26.42;37.52
21730;BME280;11027;51.030;13.812;2023-07-13T12:10:29;100077.38;;;26.22;37.88
21730;BME280;11027;51.030;13.812;2023-07-13T12:13:04;100080.91;;;26.38;38.67
21730;BME280;11027;51.030;13.812;2023-07-13T12:15:41;100081.06;;;26.62;38.34
21730;BME280;11027;51.030;13.812;2023-07-13T12:18:14;100059.88;;;26.61;38.12
21730;BME280;11027;51.030;13.812;2023-07-13T12:20:39;100070.91;;;26.76;38.02
21730;BME280;11027;51.030;13.812;2023-07-13T12:23:10;100063.75;;;26.65;37.95
21730;BME280;11027;51.030;13.812;2023-07-13T12:25:45;100067.66;;;26.64;38.45
21730;BME280;11027;51.030;13.812;2023-07-13T12:28:55;100061.00;;;26.94;38.76
21730;BME280;11027;51.030;13.812;2023-07-13T12:34:03;100061.25;;;27.32;37.01
21730;BME280;11027;51.030;13.812;2023-07-13T12:36:34;100068.25;;;27.29;36.80
21730;BME280;11027;51.030;13.812;2023-07-13T12:39:04;100056.97;;;27.40;36.63
21730;BME280;11027;51.030;13.812;2023-07-13T12:41:35;100048.41;;;27.79;36.40
21730;BME280;11027;51.030;13.812;2023-07-13T12:44:00;100051.00;;;28.19;35.84
21730;BME280;11027;51.030;13.812;2023-07-13T12:46:26;100053.41;;;28.06;35.35
21730;BME280;11027;51.030;13.812;2023-07-13T12:48:54;100040.84;;;27.80;35.49
21730;BME280;11027;51.030;13.812;2023-07-13T12:51:25;100054.78;;;27.61;35.92
21730;BME280;11027;51.030;13.812;2023-07-13T12:53:57;100064.72;;;27.48;36.43
21730;BME280;11027;51.030;13.812;2023-07-13T12:56:26;100071.34;;;27.57;35.66
21730;BME280;11027;51.030;13.812;2023-07-13T12:58:57;100069.13;;;27.54;34.92
21730;BME280;11027;51.030;13.812;2023-07-13T13:01:26;100062.63;;;27.88;34.32
21730;BME280;11027;51.030;13.812;2023-07-13T13:03:53;100058.88;;;28.17;34.11
21730;BME280;11027;51.030;13.812;2023-07-13T13:06:22;100059.25;;;28.48;33.46
21730;BME280;11027;51.030;13.812;2023-07-13T13:08:59;100060.84;;;28.35;32.13
21730;BME280;11027;51.030;13.812;2023-07-13T13:11:25;100050.28;;;28.32;32.54
21730;BME280;11027;51.030;13.812;2023-07-13T13:13:51;100050.28;;;28.32;32.45